Data for 02/04/2013

Time Sea-Level Adjusted Pressure Absolute Pressure Temperature Relative Humidity Dew Point   
(mb) (inHg) (mb) (inHg) (C) (F) (%) (C) (F)
00:05 1016 30 846 24.98 0.6 33.2 51 -8.5 16.7
00:10 1016 30 846 24.98 0.4 32.8 53 -8.1 17.3
00:15 1016 30 846 24.98 -0.1 31.8 53 -8.5 16.7
00:20 1017 30.03 846 24.98 -0 31.9 53 -8.6 16.6
00:25 1017 30.03 846 24.98 -0 32 52 -8.7 16.4
00:30 1017 30.03 846 24.98 0.1 32.2 53 -8.4 16.9
00:35 1016 30 846 24.98 0.1 32.2 53 -8.4 16.9
00:40 1016 30 846 24.98 0.2 32.3 52 -8.6 16.5
00:45 1016 30 846 24.98 0.3 32.6 51 -8.7 16.3
00:50 1016 30 846 24.98 0.4 32.8 51 -8.5 16.7
00:55 1016 30 846 24.98 0.7 33.2 49 -8.9 16
01:00 1016 30 846 24.98 0.9 33.6 49 -8.6 16.5
01:05 1016 30 846 24.98 0.7 33.3 50 -8.5 16.7
01:10 1016 30 845 24.95 0.8 33.4 49 -8.7 16.4
01:15 1016 30 845 24.95 0.8 33.5 50 -8.4 16.9
01:20 1016 30 845 24.95 0.8 33.4 50 -8.6 16.5
01:25 1016 30 845 24.95 0.7 33.3 52 -8.1 17.5
01:30 1016 30 845 24.95 0.5 32.9 51 -8.4 16.9
01:35 1016 30 845 24.95 0.7 33.3 50 -8.6 16.6
01:40 1016 30 845 24.95 0.9 33.7 50 -8.3 17.1
01:45 1016 30 845 24.95 0.9 33.7 51 -8.1 17.3
01:50 1016 30 845 24.95 0.7 33.2 51 -8.3 17.1
01:55 1016 30 845 24.95 0.7 33.2 51 -8.3 17.1
02:00 1016 30 845 24.95 0.8 33.5 52 -7.9 17.7
02:05 1016 30 845 24.95 0.7 33.2 53 -7.8 18
02:10 1016 30 845 24.95 0.5 32.8 54 -7.9 17.8
02:15 1016 30 845 24.95 0.4 32.8 54 -7.7 18.1
02:20 1016 30 845 24.95 0.3 32.6 55 -7.7 18.1
02:25 1016 30 845 24.95 0.3 32.5 55 -7.8 17.9
02:30 1016 30 845 24.95 0.4 32.8 52 -8.2 17.2
02:35 1016 30 845 24.95 0.7 33.3 52 -8.1 17.4
02:40 1016 30 845 24.95 0.8 33.4 52 -8.1 17.5
02:45 1016 30 845 24.95 0.9 33.6 51 -8.3 17.1
02:50 1016 30 845 24.95 1 33.8 51 -8.1 17.5
02:55 1016 30 845 24.95 1 33.8 50 -8.2 17.2
03:00 1016 30 845 24.95 1.1 34 49 -8.4 16.8
03:05 1016 30 845 24.95 1.3 34.3 48 -8.5 16.7
03:10 1016 30 845 24.95 1.4 34.6 47 -8.6 16.6
03:15 1016 30 845 24.95 1.4 34.5 49 -8.3 17.1
03:20 1016 30 845 24.95 1.4 34.6 48 -8.5 16.7
03:25 1016 30 845 24.95 1.6 34.8 48 -8.2 17.3
03:30 1016 30 845 24.95 1.5 34.6 49 -8.1 17.4
03:35 1016 30 845 24.95 1.2 34.2 50 -8.1 17.4
03:40 1016 30 845 24.95 1.2 34.2 47 -8.9 15.9
03:45 1016 30 845 24.95 1.6 34.9 44 -9.4 15.2
03:50 1015 29.97 845 24.95 1.9 35.4 45 -8.8 16.2
03:55 1016 30 845 24.95 1.8 35.2 46 -8.7 16.4
04:00 1016 30 845 24.95 1.7 35.1 46 -8.6 16.5
04:05 1016 30 845 24.95 1.7 35.1 47 -8.5 16.7
04:10 1016 30 845 24.95 1.7 35 47 -8.6 16.5
04:15 1016 30 845 24.95 1.7 35.1 46 -8.7 16.4
04:20 1016 30 845 24.95 1.9 35.4 44 -9 15.8
04:25 1016 30 845 24.95 2 35.5 45 -8.8 16.1
04:30 1016 30 845 24.95 1.9 35.4 45 -8.9 15.9
04:35 1015 29.97 845 24.95 1.8 35.2 46 -8.8 16.2
04:40 1015 29.97 845 24.95 1.8 35.2 46 -8.7 16.4
04:45 1015 29.97 845 24.95 1.6 34.9 46 -8.7 16.4
04:50 1015 29.97 845 24.95 1.6 34.9 47 -8.7 16.4
04:55 1015 29.97 845 24.95 1.6 34.9 46 -8.8 16.1
05:00 1015 29.97 845 24.95 1.6 34.9 46 -8.9 16
05:05 1015 29.97 844 24.92 1.6 34.9 46 -8.9 15.9
05:10 1015 29.97 844 24.92 1.6 34.8 47 -8.7 16.4
05:15 1015 29.97 844 24.92 1.5 34.7 47 -8.5 16.6
05:20 1015 29.97 844 24.92 1.5 34.7 47 -8.6 16.4
05:25 1015 29.97 844 24.92 1.4 34.5 47 -8.7 16.4
05:30 1015 29.97 844 24.92 1.3 34.4 47 -8.7 16.4
05:35 1015 29.97 844 24.92 1.3 34.3 47 -8.9 16
05:40 1015 29.97 844 24.92 1.3 34.3 48 -8.6 16.6
05:45 1015 29.97 844 24.92 1.3 34.4 47 -8.8 16.1
05:50 1015 29.97 844 24.92 1.3 34.4 46 -9 15.7
05:55 1015 29.97 844 24.92 1.4 34.6 47 -8.8 16.2
06:00 1015 29.97 844 24.92 1.5 34.7 46 -9 15.7
06:05 1015 29.97 844 24.92 1.6 34.8 45 -9.1 15.6
06:10 1015 29.97 844 24.92 1.7 35 45 -9.1 15.6
06:15 1015 29.97 844 24.92 1.7 35.1 45 -9 15.8
06:20 1015 29.97 844 24.92 1.7 35 45 -9.1 15.7
06:25 1015 29.97 845 24.95 1.7 35.1 44 -9.3 15.3
06:30 1015 29.97 844 24.92 1.9 35.3 43 -9.3 15.3
06:35 1015 29.97 845 24.95 1.8 35.3 45 -8.8 16.1
06:40 1015 29.97 844 24.92 1.8 35.2 44 -9.2 15.5
06:45 1015 29.97 844 24.92 1.8 35.2 44 -9.2 15.4
06:50 1015 29.97 844 24.92 1.8 35.3 44 -9.2 15.5
06:55 1015 29.97 844 24.92 1.9 35.4 44 -9.3 15.3
07:00 1015 29.97 845 24.95 1.9 35.3 43 -9.4 15.1
07:05 1015 29.97 845 24.95 2 35.6 42 -9.5 14.9
07:10 1015 29.97 844 24.92 2.1 35.7 43 -9.3 15.2
07:15 1015 29.97 844 24.92 2.1 35.8 42 -9.4 15
07:20 1015 29.97 844 24.92 2.2 35.9 42 -9.5 14.9
07:25 1015 29.97 844 24.92 2.3 36.1 42 -9.5 14.9
07:30 1015 29.97 844 24.92 2.3 36.2 41 -9.7 14.6
07:35 1015 29.97 844 24.92 2.3 36.2 41 -9.5 14.9
07:40 1015 29.97 844 24.92 2.4 36.3 40 -9.8 14.3
07:45 1015 29.97 844 24.92 2.6 36.7 39 -10.1 13.8
07:50 1015 29.97 844 24.92 2.9 37.2 38 -10.1 13.9
07:55 1015 29.97 844 24.92 2.9 37.3 38 -10.1 13.8
08:00 1015 29.97 844 24.92 3.1 37.5 36 -10.6 12.8
08:05 1015 29.97 844 24.92 3.4 38.2 35 -10.8 12.5
08:10 1015 29.97 844 24.92 3.7 38.6 34 -10.7 12.7
08:15 1015 29.97 844 24.92 3.8 38.8 35 -10.4 13.3
08:20 1015 29.97 844 24.92 3.6 38.6 36 -10 14
08:25 1015 29.97 844 24.92 3.4 38.2 37 -9.8 14.3
08:30 1015 29.97 844 24.92 3.3 38 38 -9.8 14.4
08:35 1015 29.97 844 24.92 3.3 37.9 39 -9.4 15.1
08:40 1015 29.97 845 24.95 3.1 37.6 39 -9.5 14.9
08:45 1015 29.97 845 24.95 3.1 37.6 39 -9.5 14.8
08:50 1015 29.97 845 24.95 3.2 37.7 39 -9.3 15.2
08:55 1015 29.97 845 24.95 3.4 38.2 34 -11 12.3
09:00 1015 29.97 845 24.95 4 39.2 34 -10.6 13
09:05 1015 29.97 845 24.95 4 39.3 34 -10.6 12.9
09:10 1015 29.97 845 24.95 4.1 39.4 34 -10.6 13
09:15 1015 29.97 845 24.95 4.1 39.3 34 -10.5 13.1
09:20 1015 29.97 845 24.95 4 39.2 35 -10.2 13.7
09:25 1015 29.97 845 24.95 4 39.2 35 -10.3 13.5
09:30 1015 29.97 845 24.95 4 39.2 34 -10.5 13.1
09:35 1015 29.97 845 24.95 4 39.2 34 -10.5 13
09:40 1015 29.97 845 24.95 4.1 39.3 34 -10.4 13.3
09:45 1015 29.97 845 24.95 4.1 39.3 35 -10 14.1
09:50 1015 29.97 845 24.95 4 39.2 36 -9.8 14.4
09:55 1015 29.97 845 24.95 3.9 39.1 37 -9.3 15.2
10:00 1015 29.97 845 24.95 3.9 39 37 -9.5 14.8
10:05 1015 29.97 845 24.95 3.9 39 37 -9.5 14.9
10:10 1015 29.97 845 24.95 3.8 38.9 37 -9.5 15
10:15 1015 29.97 845 24.95 3.9 39 38 -9.2 15.5
10:20 1015 29.97 844 24.92 3.9 39 38 -9.2 15.4
10:25 1015 29.97 844 24.92 4 39.1 38 -9 15.8
10:30 1015 29.97 845 24.95 4 39.3 38 -8.9 15.9
10:35 1015 29.97 844 24.92 4.1 39.3 39 -8.7 16.3
10:40 1015 29.97 844 24.92 4.1 39.4 39 -8.6 16.5
10:45 1015 29.97 844 24.92 4.2 39.6 38 -8.9 16
10:50 1015 29.97 844 24.92 4.4 39.9 39 -8.5 16.7
10:55 1015 29.97 844 24.92 4.6 40.2 36 -9.2 15.5
11:00 1015 29.97 844 24.92 4.7 40.4 37 -8.9 16
11:05 1015 29.97 844 24.92 4.7 40.4 37 -8.7 16.4
11:10 1015 29.97 844 24.92 4.7 40.4 38 -8.3 17
11:15 1015 29.97 845 24.95 4.8 40.7 39 -7.8 17.9
11:20 1015 29.97 845 24.95 4.9 40.8 39 -8.1 17.5
11:25 1015 29.97 845 24.95 5 41 39 -8 17.6
11:30 1015 29.97 845 24.95 5 41.1 39 -7.9 17.7
11:35 1015 29.97 845 24.95 5 41.1 39 -7.8 17.9
11:40 1016 30 845 24.95 5.1 41.1 40 -7.5 18.6
11:45 1016 30 845 24.95 5.1 41.1 41 -7.2 19
11:50 1016 30 845 24.95 5.1 41.2 40 -7.4 18.7
11:55 1016 30 845 24.95 5.1 41.2 41 -7.2 19.1
12:00 1016 30 845 24.95 5.2 41.4 41 -7 19.4
12:05 1016 30 845 24.95 5.2 41.4 41 -7 19.3
12:10 1016 30 845 24.95 5.2 41.3 41 -7.1 19.2
12:15 1016 30 845 24.95 5 41.1 41 -7.1 19.3
12:20 1016 30 845 24.95 4.9 40.9 42 -7 19.5
12:25 1016 30 845 24.95 4.8 40.6 42 -7 19.4
12:30 1016 30 845 24.95 4.7 40.4 41 -7.5 18.5
12:35 1016 30 845 24.95 4.8 40.6 41 -7.4 18.7
12:40 1016 30 845 24.95 4.9 40.8 40 -7.6 18.3
12:45 1016 30 845 24.95 4.9 40.8 42 -7 19.4
12:50 1016 30 845 24.95 4.9 40.9 41 -7.3 18.9
12:55 1016 30 845 24.95 5 41 42 -6.7 19.9
13:00 1016 30 845 24.95 5 41 41 -7.2 19
13:05 1016 30 845 24.95 5.1 41.1 41 -7.3 18.9
13:10 1016 30 845 24.95 5.1 41.1 41 -7.2 19
13:15 1016 30 845 24.95 5.1 41.2 42 -6.7 20
13:20 1016 30 845 24.95 5.1 41.2 41 -6.9 19.5
13:25 1016 30 845 24.95 5.1 41.2 42 -6.7 19.9
13:30 1016 30 845 24.95 5.1 41.1 43 -6.6 20.1
13:35 1016 30 845 24.95 5.1 41.1 42 -6.8 19.8
13:40 1016 30 845 24.95 5.1 41.1 41 -7.1 19.2
13:45 1015 29.97 845 24.95 5 41 42 -7 19.5
13:50 1016 30 845 24.95 5 41 42 -7 19.5
13:55 1015 29.97 845 24.95 5 41.1 41 -7.1 19.2
14:00 1015 29.97 845 24.95 5.1 41.1 41 -7.2 19.1
14:05 1015 29.97 845 24.95 5.1 41.3 42 -6.7 19.9
14:10 1015 29.97 845 24.95 5.1 41.2 43 -6.4 20.5
14:15 1015 29.97 845 24.95 5 41.1 45 -6 21.2
14:20 1015 29.97 845 24.95 5.1 41.1 43 -6.4 20.5
14:25 1015 29.97 845 24.95 5.2 41.3 43 -6.5 20.3
14:30 1016 30 845 24.95 5.2 41.4 43 -6.3 20.6
14:35 1016 30 845 24.95 5 41.1 44 -6.2 20.8
14:40 1016 30 845 24.95 5.1 41.2 44 -6 21.1
14:45 1015 29.97 845 24.95 5.1 41.2 41 -6.9 19.5
14:50 1016 30 845 24.95 5.2 41.3 43 -6.5 20.3
14:55 1015 29.97 845 24.95 5.1 41.2 43 -6.6 20.2
15:00 1015 29.97 845 24.95 5 41.1 44 -6.3 20.7
15:05 1015 29.97 845 24.95 5 41 45 -6 21.1
15:10 1015 29.97 845 24.95 5.1 41.2 45 -5.8 21.6
15:15 1015 29.97 845 24.95 5.3 41.6 46 -5.4 22.3
15:20 1015 29.97 845 24.95 5.5 41.9 45 -5.5 22.1
15:25 1015 29.97 844 24.92 5.6 42.1 45 -5.2 22.6
15:30 1015 29.97 844 24.92 5.6 42.1 46 -5.2 22.7
15:35 1015 29.97 844 24.92 5.7 42.3 46 -5 23
15:40 1015 29.97 844 24.92 5.6 42.1 46 -5.1 22.9
15:45 1015 29.97 844 24.92 5.4 41.8 46 -5.2 22.7
15:50 1015 29.97 844 24.92 5.3 41.5 48 -4.9 23.1
15:55 1015 29.97 844 24.92 5.3 41.5 48 -4.9 23.2
16:00 1015 29.97 844 24.92 5.4 41.8 48 -4.8 23.4
16:05 1015 29.97 844 24.92 5.7 42.2 46 -5 23
16:10 1015 29.97 844 24.92 5.7 42.2 46 -5.1 22.8
16:15 1015 29.97 844 24.92 5.7 42.3 45 -5.1 22.8
16:20 1015 29.97 844 24.92 5.7 42.3 46 -4.9 23.2
16:25 1015 29.97 844 24.92 5.6 42.1 47 -4.9 23.2
16:30 1014 29.94 844 24.92 5.4 41.7 46 -5.2 22.7
16:35 1014 29.94 844 24.92 5.5 41.9 45 -5.4 22.3
16:40 1014 29.94 843 24.89 5.6 42.1 46 -5.2 22.7
16:45 1014 29.94 843 24.89 5.7 42.2 45 -5.3 22.5
16:50 1014 29.94 844 24.92 5.7 42.2 46 -5.2 22.7
16:55 1014 29.94 844 24.92 5.6 42.2 45 -5.5 22.2
17:00 1014 29.94 843 24.89 5.6 42.1 45 -5.4 22.2
17:05 1014 29.94 843 24.89 5.7 42.2 44 -5.6 22
17:10 1014 29.94 844 24.92 5.7 42.3 44 -5.5 22.1
17:15 1014 29.94 844 24.92 5.7 42.3 45 -5.3 22.4
17:20 1014 29.94 844 24.92 5.6 42 46 -5.2 22.7
17:25 1014 29.94 844 24.92 5.3 41.5 48 -4.8 23.4
17:30 1014 29.94 844 24.92 5.1 41.1 50 -4.5 24
17:35 1014 29.94 844 24.92 4.8 40.7 52 -4.2 24.5
17:40 1014 29.94 844 24.92 4.7 40.4 53 -4.1 24.6
17:45 1014 29.94 844 24.92 4.6 40.3 54 -4 24.8
17:50 1014 29.94 844 24.92 4.5 40.2 54 -4 24.8
17:55 1015 29.97 844 24.92 4.8 40.7 53 -4 24.7
18:00 1015 29.97 844 24.92 4.8 40.7 52 -4.2 24.4
18:05 1015 29.97 844 24.92 4.9 40.9 51 -4.3 24.3
18:10 1015 29.97 844 24.92 4.7 40.4 53 -4.2 24.5
18:15 1015 29.97 844 24.92 4.6 40.2 52 -4.4 24
18:20 1015 29.97 844 24.92 4.5 40.2 53 -4.3 24.3
18:25 1014 29.94 844 24.92 4.4 39.9 54 -4.2 24.4
18:30 1014 29.94 844 24.92 4.2 39.6 55 -4.1 24.6
18:35 1014 29.94 844 24.92 4 39.2 56 -3.9 24.9
18:40 1014 29.94 844 24.92 3.9 38.9 57 -3.9 25
18:45 1015 29.97 844 24.92 3.8 38.8 57 -3.9 25
18:50 1015 29.97 844 24.92 3.7 38.7 58 -3.9 25
18:55 1015 29.97 844 24.92 3.8 38.8 57 -4 24.7
19:00 1015 29.97 844 24.92 3.9 39 55 -4.4 24.1
19:05 1015 29.97 844 24.92 4.1 39.4 56 -3.9 24.9
19:10 1015 29.97 844 24.92 3.9 39 56 -4 24.7
19:15 1015 29.97 844 24.92 4 39.2 54 -4.6 23.8
19:20 1015 29.97 844 24.92 4.3 39.7 53 -4.4 24
19:25 1015 29.97 844 24.92 4.4 39.9 55 -3.9 25
19:30 1015 29.97 844 24.92 3.5 38.4 62 -3.1 26.4
19:35 1015 29.97 844 24.92 3.1 37.5 62 -3.6 25.5
19:40 1015 29.97 844 24.92 3.1 37.6 61 -3.6 25.6
19:45 1015 29.97 844 24.92 3.3 37.9 60 -3.9 25
19:50 1015 29.97 844 24.92 3.5 38.2 58 -4 24.8
19:55 1015 29.97 844 24.92 3.6 38.5 57 -4.1 24.6
20:00 1015 29.97 844 24.92 3.7 38.6 56 -4.4 24.1
20:05 1015 29.97 844 24.92 3.8 38.9 55 -4.3 24.2
20:10 1015 29.97 844 24.92 3.8 38.9 54 -4.6 23.7
20:15 1015 29.97 844 24.92 4 39.1 54 -4.6 23.7
20:20 1015 29.97 844 24.92 4 39.2 53 -4.8 23.4
20:25 1015 29.97 844 24.92 4.2 39.6 51 -5 23
20:30 1015 29.97 845 24.95 4.3 39.7 52 -4.7 23.5
20:35 1015 29.97 845 24.95 4.4 39.8 51 -4.9 23.3
20:40 1015 29.97 845 24.95 4.3 39.8 52 -4.6 23.6
20:45 1015 29.97 844 24.92 4.2 39.5 54 -4.2 24.4
20:50 1015 29.97 844 24.92 3.9 39 56 -4.2 24.4
20:55 1015 29.97 844 24.92 3.7 38.6 56 -4.3 24.2
21:00 1015 29.97 844 24.92 3.5 38.3 57 -4.2 24.4
21:05 1015 29.97 844 24.92 3.4 38.1 58 -4.2 24.4
21:10 1015 29.97 844 24.92 3.3 37.9 58 -4.2 24.4
21:15 1015 29.97 844 24.92 3.2 37.7 59 -4.1 24.6
21:20 1015 29.97 844 24.92 3.1 37.5 59 -4.3 24.3
21:25 1015 29.97 844 24.92 3 37.4 59 -4.2 24.5
21:30 1015 29.97 844 24.92 3 37.3 59 -4.2 24.4
21:35 1015 29.97 845 24.95 3 37.3 59 -4.2 24.4
21:40 1015 29.97 845 24.95 2.9 37.2 61 -4 24.8
21:45 1015 29.97 845 24.95 2.7 36.9 62 -3.9 25
21:50 1015 29.97 844 24.92 2.5 36.5 62 -4.1 24.7
21:55 1015 29.97 844 24.92 2.4 36.4 62 -4.1 24.5
22:00 1015 29.97 844 24.92 2.4 36.4 62 -4.2 24.5
22:05 1015 29.97 844 24.92 2.4 36.3 62 -4.2 24.4
22:10 1015 29.97 844 24.92 2.5 36.5 60 -4.5 23.9
22:15 1015 29.97 844 24.92 2.6 36.7 59 -4.5 23.9
22:20 1015 29.97 844 24.92 2.7 36.8 59 -4.7 23.6
22:25 1015 29.97 844 24.92 2.7 36.9 59 -4.6 23.7
22:30 1015 29.97 844 24.92 2.7 36.8 59 -4.7 23.6
22:35 1015 29.97 844 24.92 2.7 36.8 58 -4.8 23.4
22:40 1015 29.97 844 24.92 2.8 37 57 -4.9 23.2
22:45 1015 29.97 844 24.92 2.8 37 57 -4.9 23.1
22:50 1015 29.97 844 24.92 2.9 37.2 55 -5.2 22.6
22:55 1015 29.97 844 24.92 3 37.4 55 -5.1 22.8
23:00 1015 29.97 844 24.92 3 37.4 55 -5 22.9
23:05 1015 29.97 844 24.92 3 37.3 56 -5 23
23:10 1015 29.97 844 24.92 2.8 37.1 56 -5.1 22.9
23:15 1015 29.97 844 24.92 2.8 37 57 -5 23
23:20 1015 29.97 844 24.92 2.7 36.9 57 -5 23.1
23:25 1015 29.97 845 24.95 2.7 36.8 57 -5 23.1
23:30 1015 29.97 844 24.92 2.5 36.6 57 -5 22.9
23:35 1015 29.97 844 24.92 2.5 36.4 58 -5 22.9
23:40 1015 29.97 845 24.95 2.4 36.3 58 -5.1 22.9
23:45 1015 29.97 845 24.95 2.4 36.2 58 -5.1 22.8
23:50 1015 29.97 845 24.95 2.4 36.3 57 -5.2 22.6
23:55 1015 29.97 845 24.95 2.4 36.3 57 -5.2 22.7
24:00 1015 29.97 845 24.95 2.4 36.3 58 -5.1 22.8